createdAt,value
2017-06-14T00:01:14.656Z,15.90
2017-06-14T00:03:43.016Z,15.90
2017-06-14T00:06:11.287Z,15.90
2017-06-14T00:08:40.715Z,15.90
2017-06-14T00:13:38.557Z,15.90
2017-06-14T00:16:06.840Z,15.80
2017-06-14T00:18:35.187Z,15.80
2017-06-14T00:21:03.867Z,15.80
2017-06-14T00:23:32.907Z,15.80
2017-06-14T00:28:31.183Z,15.80
2017-06-14T00:30:59.495Z,15.80
2017-06-14T00:33:27.851Z,15.80
2017-06-14T00:35:56.163Z,15.70
2017-06-14T00:38:25.601Z,15.70
2017-06-14T00:40:53.931Z,15.70
2017-06-14T00:43:22.228Z,15.70
2017-06-14T00:45:50.515Z,15.70
2017-06-14T00:48:18.840Z,15.70
2017-06-14T00:50:47.143Z,15.70
2017-06-14T00:53:16.204Z,15.70
2017-06-14T00:55:44.572Z,15.70
2017-06-14T00:58:13.619Z,15.70
2017-06-14T01:00:42.687Z,15.70
2017-06-14T01:03:10.989Z,15.70
2017-06-14T01:05:39.250Z,15.60
2017-06-14T01:08:07.498Z,15.60
2017-06-14T01:10:35.798Z,15.60
2017-06-14T01:13:05.190Z,15.60
2017-06-14T01:15:33.446Z,15.60
2017-06-14T01:20:31.637Z,15.60
2017-06-14T01:22:59.926Z,15.50
2017-06-14T01:25:28.249Z,15.50
2017-06-14T01:27:56.551Z,15.50
2017-06-14T01:30:24.832Z,15.50
2017-06-14T01:32:53.323Z,15.50
2017-06-14T01:35:21.977Z,15.60
2017-06-14T01:37:50.241Z,15.60
2017-06-14T01:40:18.601Z,15.60
2017-06-14T01:42:46.910Z,15.60
2017-06-14T01:45:16.590Z,15.60
2017-06-14T01:47:45.049Z,15.50
2017-06-14T01:50:13.367Z,15.50
2017-06-14T01:52:41.642Z,15.50
2017-06-14T01:55:09.992Z,15.50
2017-06-14T01:57:38.249Z,15.50
2017-06-14T02:00:07.267Z,15.50
2017-06-14T02:02:35.569Z,15.50
2017-06-14T02:05:03.815Z,15.50
2017-06-14T02:07:32.080Z,15.50
2017-06-14T02:10:00.422Z,15.50
2017-06-14T02:12:28.709Z,15.50
2017-06-14T02:14:57.021Z,15.40
2017-06-14T02:17:26.132Z,15.40
2017-06-14T02:19:55.193Z,15.40
2017-06-14T02:22:23.458Z,15.30
2017-06-14T02:24:51.756Z,15.30
2017-06-14T02:27:20.778Z,15.30
2017-06-14T02:29:50.183Z,15.20
2017-06-14T02:32:18.978Z,15.20
2017-06-14T02:34:47.237Z,15.20
2017-06-14T02:37:15.537Z,15.20
2017-06-14T02:39:44.261Z,15.20
2017-06-14T02:42:13.321Z,15.20
2017-06-14T02:44:41.567Z,15.20
2017-06-14T02:47:09.895Z,15.10
2017-06-14T02:52:08.009Z,15.00
2017-06-14T02:54:36.315Z,15.00
2017-06-14T02:57:04.561Z,15.00
2017-06-14T02:59:32.814Z,15.00
2017-06-14T03:02:01.130Z,15.00
2017-06-14T03:04:29.399Z,15.00
2017-06-14T03:06:58.432Z,15.00
2017-06-14T03:09:27.904Z,14.90
2017-06-14T03:11:56.581Z,14.90
2017-06-14T03:14:24.844Z,14.90
2017-06-14T03:16:53.141Z,14.90
2017-06-14T03:19:21.402Z,14.90
2017-06-14T03:21:49.653Z,14.90
2017-06-14T03:24:17.954Z,14.90
2017-06-14T03:26:47.713Z,14.80
2017-06-14T03:29:15.990Z,14.80
2017-06-14T03:31:44.322Z,14.80
2017-06-14T03:34:12.574Z,14.80
2017-06-14T03:36:42.334Z,14.80
2017-06-14T03:41:40.879Z,14.80
2017-06-14T03:44:09.130Z,14.80
2017-06-14T03:46:37.438Z,14.80
2017-06-14T03:49:06.087Z,14.80
2017-06-14T03:51:34.337Z,14.80
2017-06-14T03:54:02.646Z,14.80
2017-06-14T03:56:30.918Z,14.80
2017-06-14T04:01:33.785Z,14.80
2017-06-14T04:06:31.530Z,14.80
2017-06-14T04:08:59.851Z,14.80
2017-06-14T04:11:28.122Z,14.80
2017-06-14T04:13:57.933Z,14.80
2017-06-14T04:16:26.546Z,14.80
2017-06-14T04:18:54.799Z,14.80
2017-06-14T04:21:24.550Z,14.80
2017-06-14T04:23:52.866Z,14.80
2017-06-14T04:33:49.613Z,14.90
2017-06-14T04:36:18.629Z,14.90
2017-06-14T04:38:46.938Z,14.90
2017-06-14T04:41:16.363Z,15.00
2017-06-14T04:43:44.625Z,15.00
2017-06-14T04:46:12.929Z,15.10
2017-06-14T04:48:41.190Z,15.10
2017-06-14T04:51:09.433Z,15.10
2017-06-14T04:53:37.737Z,15.10
2017-06-14T04:58:35.866Z,15.20
2017-06-14T05:01:04.162Z,15.30
2017-06-14T05:03:32.430Z,15.40
2017-06-14T05:06:01.834Z,15.50
2017-06-14T05:08:30.175Z,15.50
2017-06-14T05:13:27.995Z,15.60
2017-06-14T05:15:56.615Z,15.70
2017-06-14T05:18:26.406Z,15.80
2017-06-14T05:20:54.666Z,15.90
2017-06-14T05:23:22.977Z,15.90
2017-06-14T05:25:51.385Z,16.00
2017-06-14T05:28:19.671Z,16.10
2017-06-14T05:30:47.970Z,16.20
2017-06-14T05:33:17.001Z,16.20
2017-06-14T05:35:45.263Z,16.30
2017-06-14T05:38:13.566Z,16.40
2017-06-14T05:40:41.824Z,16.50
2017-06-14T05:43:10.065Z,16.50
2017-06-14T05:45:38.386Z,16.60
2017-06-14T05:48:06.640Z,16.60
2017-06-14T05:50:34.973Z,16.70
2017-06-14T05:53:03.689Z,16.80
2017-06-14T05:55:31.967Z,16.80
2017-06-14T05:58:00.232Z,16.90
2017-06-14T06:00:28.587Z,17.00
2017-06-14T06:02:56.947Z,17.00
2017-06-14T06:05:25.626Z,17.10
2017-06-14T06:07:54.363Z,17.20
2017-06-14T06:10:22.652Z,17.20
2017-06-14T06:12:50.934Z,17.30
2017-06-14T06:15:19.267Z,17.40
2017-06-14T06:20:17.448Z,17.70
2017-06-14T06:22:45.778Z,17.90
2017-06-14T06:25:14.075Z,18.00
2017-06-14T06:27:42.813Z,18.10
2017-06-14T06:30:11.571Z,18.30
2017-06-14T06:32:41.367Z,18.60
2017-06-14T06:35:09.642Z,18.80
2017-06-14T06:37:37.976Z,19.10
2017-06-14T06:40:06.259Z,19.50
2017-06-14T06:42:36.048Z,19.80
2017-06-14T06:45:04.387Z,20.20
2017-06-14T06:47:32.664Z,20.60
2017-06-14T06:50:00.955Z,20.90
2017-06-14T06:52:30.443Z,21.30
2017-06-14T06:54:59.132Z,21.50
2017-06-14T06:57:27.457Z,21.60
2017-06-14T06:59:55.812Z,21.90
2017-06-14T07:02:24.079Z,22.10
2017-06-14T07:04:53.880Z,22.50
2017-06-14T07:07:22.210Z,22.60
2017-06-14T07:09:50.491Z,22.70
2017-06-14T07:12:19.159Z,22.90
2017-06-14T07:14:47.511Z,23.00
2017-06-14T07:17:15.814Z,23.10
2017-06-14T07:19:44.089Z,23.10
2017-06-14T07:22:12.407Z,23.20
2017-06-14T07:24:40.684Z,23.40
2017-06-14T07:27:08.963Z,23.50
2017-06-14T07:29:37.319Z,23.50
2017-06-14T07:32:06.359Z,23.50
2017-06-14T07:34:34.638Z,23.70
2017-06-14T07:37:02.963Z,23.80
2017-06-14T07:39:32.535Z,23.80
2017-06-14T07:42:01.214Z,23.90
2017-06-14T07:44:29.581Z,24.00
2017-06-14T07:46:57.870Z,24.10
2017-06-14T07:49:26.207Z,24.20
2017-06-14T07:51:55.354Z,24.50
2017-06-14T07:54:24.406Z,24.80
2017-06-14T07:56:53.459Z,25.10
2017-06-14T07:59:21.995Z,25.20
2017-06-14T08:01:51.399Z,25.60
2017-06-14T08:04:19.679Z,25.60
2017-06-14T08:06:48.006Z,25.70
2017-06-14T08:09:17.783Z,25.60
2017-06-14T08:11:46.107Z,25.60
2017-06-14T08:14:14.467Z,25.60
2017-06-14T08:16:42.743Z,25.70
2017-06-14T08:19:11.019Z,25.90
2017-06-14T08:21:39.344Z,26.00
2017-06-14T08:24:07.618Z,26.20
2017-06-14T08:26:37.430Z,26.50
2017-06-14T08:29:05.754Z,26.70
2017-06-14T08:31:34.812Z,26.80
2017-06-14T08:34:04.223Z,26.90
2017-06-14T08:36:32.555Z,27.00
2017-06-14T08:41:31.532Z,27.10
2017-06-14T08:46:29.423Z,27.20
2017-06-14T08:48:58.124Z,27.00
2017-06-14T08:51:27.343Z,26.80
2017-06-14T08:53:56.081Z,26.60
2017-06-14T08:56:24.351Z,26.60
2017-06-14T08:58:52.684Z,26.40
2017-06-14T09:01:20.960Z,26.40
2017-06-14T09:03:49.239Z,26.60
2017-06-14T09:06:17.584Z,26.50
2017-06-14T09:08:45.908Z,26.60
2017-06-14T09:11:15.396Z,26.80
2017-06-14T09:13:43.743Z,27.00
2017-06-14T09:16:12.024Z,27.20
2017-06-14T09:18:40.303Z,27.20
2017-06-14T09:21:09.019Z,27.20
2017-06-14T09:23:37.300Z,27.40
2017-06-14T09:26:06.352Z,27.60
2017-06-14T09:28:35.886Z,27.70
2017-06-14T09:31:04.180Z,27.70
2017-06-14T09:33:32.474Z,27.70
2017-06-14T09:36:00.810Z,27.80
2017-06-14T09:38:29.121Z,27.90
2017-06-14T09:40:58.658Z,28.00
2017-06-14T09:43:27.012Z,28.20
2017-06-14T09:45:55.350Z,28.10
2017-06-14T09:48:24.776Z,27.80
2017-06-14T09:50:56.631Z,27.80
2017-06-14T09:53:25.343Z,28.00
2017-06-14T09:55:53.639Z,28.10
2017-06-14T09:58:22.087Z,28.30
2017-06-14T10:00:50.754Z,28.20
2017-06-14T10:03:19.039Z,28.10
2017-06-14T10:05:47.379Z,28.20
2017-06-14T10:08:17.171Z,28.20
2017-06-14T10:10:45.464Z,28.20
2017-06-14T10:13:13.793Z,27.90
2017-06-14T10:15:42.067Z,27.80
2017-06-14T10:18:10.347Z,27.90
2017-06-14T10:20:39.075Z,28.00
2017-06-14T10:23:08.111Z,28.10
2017-06-14T10:25:36.388Z,27.90
2017-06-14T10:28:04.743Z,27.60
2017-06-14T10:30:33.028Z,27.60
2017-06-14T10:33:01.333Z,27.80
2017-06-14T10:35:30.464Z,27.90
2017-06-14T10:37:59.548Z,28.10
2017-06-14T10:40:27.857Z,28.20
2017-06-14T10:42:57.000Z,27.90
2017-06-14T10:45:26.818Z,27.40
2017-06-14T10:47:55.897Z,27.40
2017-06-14T10:50:25.067Z,27.40
2017-06-14T10:52:53.359Z,27.60
2017-06-14T10:55:21.659Z,27.90
2017-06-14T10:57:49.981Z,28.20
2017-06-14T11:00:18.259Z,28.30
2017-06-14T11:02:46.565Z,28.20
2017-06-14T11:05:14.917Z,27.90
2017-06-14T11:07:43.200Z,27.80
2017-06-14T11:10:12.635Z,27.40
2017-06-14T11:12:41.384Z,27.40
2017-06-14T11:15:10.432Z,27.00
2017-06-14T11:17:39.131Z,27.10
2017-06-14T11:20:07.458Z,27.30
2017-06-14T11:22:36.503Z,27.70
2017-06-14T11:25:04.778Z,27.90
2017-06-14T11:30:03.024Z,28.50
2017-06-14T11:32:31.329Z,28.70
2017-06-14T11:34:59.699Z,28.90
2017-06-14T11:37:28.006Z,28.90
2017-06-14T11:39:56.348Z,29.20
2017-06-14T11:42:24.691Z,29.10
2017-06-14T11:44:53.738Z,29.30
2017-06-14T11:47:22.020Z,29.40
2017-06-14T11:49:50.354Z,29.60
2017-06-14T11:52:18.626Z,29.80
2017-06-14T11:57:16.918Z,30.20
2017-06-14T11:59:46.364Z,30.20
2017-06-14T12:02:14.643Z,30.10
2017-06-14T12:04:43.738Z,30.10
2017-06-14T12:07:12.407Z,30.10
2017-06-14T12:09:40.683Z,30.10
2017-06-14T12:12:09.788Z,29.80
2017-06-14T12:14:39.571Z,29.80
2017-06-14T12:17:07.851Z,30.00
2017-06-14T17:54:55.370Z,25.70
2017-06-14T17:57:24.887Z,25.70
2017-06-14T17:59:53.168Z,25.70
2017-06-14T18:02:21.506Z,25.70
2017-06-14T18:04:49.862Z,25.70
2017-06-14T18:07:19.686Z,25.70
2017-06-14T18:09:47.963Z,25.70
2017-06-14T18:12:17.055Z,25.70
2017-06-14T18:14:45.343Z,25.70
2017-06-14T18:17:15.131Z,25.60
2017-06-14T18:19:43.481Z,25.50
2017-06-14T18:22:11.763Z,25.50
2017-06-14T18:27:10.388Z,25.40
2017-06-14T18:29:38.671Z,25.40
2017-06-14T18:34:38.463Z,25.30
2017-06-14T18:37:06.747Z,25.30
2017-06-14T18:39:35.028Z,25.30
2017-06-14T18:42:03.646Z,25.20
2017-06-14T18:44:33.082Z,25.20
2017-06-14T18:47:01.393Z,25.10
2017-06-14T18:52:00.934Z,24.90
2017-06-14T18:56:59.503Z,24.80
2017-06-14T19:01:57.421Z,24.80
2017-06-14T19:04:25.763Z,24.70
2017-06-14T19:06:54.877Z,24.70
2017-06-14T19:09:23.562Z,24.60
2017-06-14T19:11:52.037Z,24.60
2017-06-14T19:14:20.316Z,24.60
2017-06-14T19:16:50.120Z,24.60
2017-06-14T19:19:18.839Z,24.50
2017-06-14T19:21:47.123Z,24.50
2017-06-14T19:24:15.435Z,24.50
2017-06-14T19:26:50.642Z,24.40
2017-06-14T19:31:49.592Z,24.40
2017-06-14T19:34:18.981Z,24.30
2017-06-14T19:36:48.041Z,24.30
2017-06-14T19:39:17.106Z,24.20
2017-06-14T19:41:46.279Z,24.20
2017-06-14T19:44:15.007Z,24.10
2017-06-14T19:46:43.316Z,24.10
2017-06-14T19:51:41.649Z,23.90
2017-06-14T19:54:09.980Z,23.90
2017-06-14T19:56:38.307Z,23.80
2017-06-14T19:59:06.981Z,23.70
2017-06-14T20:01:36.034Z,23.70
2017-06-14T20:04:05.131Z,23.70
2017-06-14T20:06:34.547Z,23.60
2017-06-14T20:09:02.843Z,23.50
2017-06-14T20:11:31.177Z,23.40
2017-06-14T20:13:59.455Z,23.40
2017-06-14T20:16:27.739Z,23.40
2017-06-14T20:18:56.828Z,23.30
2017-06-14T20:21:25.107Z,23.20
2017-06-14T20:23:53.392Z,23.20
2017-06-14T20:26:21.832Z,23.10
2017-06-14T20:28:50.426Z,23.10
2017-06-14T20:31:21.355Z,23.00
2017-06-14T20:33:49.671Z,23.00
2017-06-14T20:36:18.348Z,22.90
2017-06-14T20:38:46.696Z,22.90
2017-06-14T20:41:15.786Z,22.80
2017-06-14T20:43:44.080Z,22.70
2017-06-14T20:46:12.407Z,22.60
2017-06-14T20:48:40.752Z,22.60
2017-06-14T20:51:09.074Z,22.50
2017-06-14T20:56:07.749Z,22.40
2017-06-14T20:58:37.569Z,22.40
2017-06-14T21:01:05.953Z,22.30
2017-06-14T21:06:05.022Z,22.10
2017-06-14T21:08:33.352Z,22.10
2017-06-14T21:11:03.212Z,22.00
2017-06-14T21:13:31.495Z,21.90
2017-06-14T21:16:03.360Z,21.90
2017-06-14T21:18:31.708Z,21.90
2017-06-14T21:20:59.979Z,21.80
2017-06-14T21:23:28.259Z,21.80
2017-06-14T21:25:56.587Z,21.70
2017-06-14T21:30:54.394Z,21.60
2017-06-14T21:33:22.767Z,21.60
2017-06-14T21:35:51.046Z,21.50
2017-06-14T21:38:19.327Z,21.40
2017-06-14T21:40:48.730Z,21.40
2017-06-14T21:43:17.777Z,21.30
2017-06-14T21:45:47.793Z,21.30
2017-06-14T21:50:47.703Z,21.20
2017-06-14T21:53:17.119Z,21.10
2017-06-14T21:55:45.750Z,21.10
2017-06-14T21:58:15.166Z,21.10
2017-06-14T22:00:43.442Z,21.00
2017-06-14T22:03:12.383Z,21.00
2017-06-14T22:08:10.555Z,20.90
2017-06-14T22:10:39.045Z,20.90
2017-06-14T22:13:08.468Z,20.90
2017-06-14T22:15:37.172Z,20.80
2017-06-14T22:18:05.943Z,20.80
2017-06-14T22:20:34.228Z,20.70
2017-06-14T22:23:03.287Z,20.70
2017-06-14T22:25:32.395Z,20.70
2017-06-14T22:28:01.071Z,20.60
2017-06-14T22:30:30.131Z,20.60
2017-06-14T22:32:58.842Z,20.60
2017-06-14T22:35:27.118Z,20.50
2017-06-14T22:37:55.404Z,20.50
2017-06-14T22:40:25.247Z,20.40
2017-06-14T22:42:53.533Z,20.40
2017-06-14T22:45:21.813Z,20.40
2017-06-14T22:47:50.172Z,20.30
2017-06-14T22:50:18.446Z,20.30
2017-06-14T22:52:48.235Z,20.30
2017-06-14T22:55:16.915Z,20.20
2017-06-14T22:57:46.707Z,20.20
2017-06-14T23:00:16.167Z,20.20
2017-06-14T23:02:45.215Z,20.10
2017-06-14T23:05:14.259Z,20.20
2017-06-14T23:07:43.719Z,20.20
2017-06-14T23:12:42.635Z,20.10
2017-06-14T23:15:13.072Z,20.10
2017-06-14T23:17:41.350Z,20.10
2017-06-14T23:20:09.659Z,20.00
2017-06-14T23:22:39.148Z,20.00
2017-06-14T23:25:08.215Z,20.00
2017-06-14T23:27:37.275Z,19.90
2017-06-14T23:30:05.915Z,19.90
2017-06-14T23:32:34.216Z,19.90
2017-06-14T23:35:02.596Z,19.80
2017-06-14T23:37:31.688Z,19.80
2017-06-14T23:42:29.867Z,19.80
2017-06-14T23:44:58.192Z,19.80
2017-06-14T23:47:27.242Z,19.80
2017-06-14T23:52:26.210Z,19.70
2017-06-14T23:54:54.527Z,19.70
2017-06-14T23:57:23.593Z,19.70
2017-06-14T23:59:53.005Z,19.70
